NATURA VA

 INFORMACIÓN METAR y TAF
METAR FOR LEJR
ADDS - METARS form results

(1024 UTC 19 July 2019)
Data provider http://aviationweather.gov/metar/data/
 
METAR text: LEJR 191000Z VRB03KT CAVOK 31/15 Q1012
Conditions at: LEJR (JEREZ (CIV/MIL) , ES) observed 1000 UTC 19 July 2019
Temperature: 31.0°C (88°F)
Dewpoint: 15.0°C (59°F) [RH = 38%]
Pressure (altimeter): 29.88 inches Hg (1012.0 mb)
Winds: variable direction winds at 3 MPH (3 knots; 1.5 m/s)
Visibility: 6 or more miles (10+ km)
Ceiling: ceiling and visibility are OK
Clouds: unknown
Weather: no significant weather observed at this time

METAR text: LEJR 190930Z VRB03KT CAVOK 30/16 Q1012
Conditions at: LEJR (JEREZ (CIV/MIL) , ES) observed 0930 UTC 19 July 2019
Temperature: 30.0°C (86°F)
Dewpoint: 16.0°C (61°F) [RH = 43%]
Pressure (altimeter): 29.88 inches Hg (1012.0 mb)
Winds: variable direction winds at 3 MPH (3 knots; 1.5 m/s)
Visibility: 6 or more miles (10+ km)
Ceiling: ceiling and visibility are OK
Clouds: unknown
Weather: no significant weather observed at this time

Forecast for: LEJR (JEREZ (CIV/MIL) , ES)
Text: TAF LEJR 190500Z 1906/2006 02004KT CAVOK TX37/1915Z TN18/1906Z
Forecast period: 0600 to 1400 UTC 19 July 2019
Forecast type: FROM: standard forecast or significant change
Winds: from the NNE (20 degrees) at 5 MPH (4 knots; 2.1 m/s)
Visibility: 6 or more miles 10+ km)
Ceiling: unknown
Clouds: missing
Weather: no significant weather forecast for this period
Text: BECMG 1914/1916 22010KT
Forecast period: 1400 to 2200 UTC 19 July 2019
Forecast type: BECOMING: Conditions expected to become as follows by 1600 UTC 19 July 2019
Winds: from the SW (220 degrees) at 12 MPH (10 knots; 5.1 m/s)
Visibility: 6 or more miles 10+ km)
Ceiling: unknown
Clouds: missing
Weather: no significant weather forecast for this period
Text: BECMG 1922/2001 VRB02KT
Forecast period: 2200 UTC 19 July 2019 to 0600 UTC 20 July 2019
Forecast type: BECOMING: Conditions expected to become as follows by 0100 UTC 20 July 2019
Winds: variable direction winds at 2 MPH (2 knots; 1.0 m/s)
Visibility: 6 or more miles 10+ km)
Ceiling: unknown
Clouds: missing
Weather: no significant weather forecast for this period

 MAPA DE AEROPUERTO

 INFORMACIÓN DE PISTA
Pista 02 Longitud 7546 ft Ancho 148 ft
Elevación 68 ft Umbral desplazado 0 ft Rumbo de pista 21
Pista 20 Longitud 7546 ft Ancho 148 ft
Elevación 93 ft Umbral desplazado 0 ft Rumbo de pista 201

 FRECUANCIAS DEL AEROPUERTO
Tipo APP Nombre APP Frecuencia 128.5 MHZ
Tipo GND Nombre GND Frecuencia 121.6 MHZ
Tipo TWR Nombre TWR Frecuencia 118.55 MHZ

 RADIO AYUDAS DEL AEROPUERTO
Tipo NDB Nombre Jerez Frecuencia 433 KHZ
Tipo VOR-DME Nombre Jerez Frecuencia 113000 KHZ



Powered by Virtual Airlines Manager [v2.6.2]